Lebanon, TN

11:59 PM CST on January 23, 2017 (GMT -0600)
Tuckers Cross Roads | | Change Station

Elev 636 ft 36.20 °N, 86.14 °W | Updated 5 seconds ago

Overcast
Overcast
43.4 °F
Feels Like 43 °F
N
0.0
Wind Variable Wind from SSW
Gusts 3.0 mph

Today
High -- | Low -- °F
--% Chance of Precip.
Yesterday
High -- | Low -- °F
Precip. -- in
Pressure 29.89 in
Visibility 10.0 miles
Clouds Overcast 1800 ft
Windchill 43 °F
Dew Point 40 °F
Humidity 86%
Rainfall 0.30 in
Snow Depth Not available.
6:51 AM 5:02 PM
Waning Crescent, 14% visible
METAR KMQY 240556Z AUTO 30008KT 10SM OVC018 06/02 A2985 RMK AO2 SLP120 T00560022 10078 20056 401330056 51007
Pressure 29.89 in
Visibility 10.0 miles
Clouds Overcast 1800 ft
Windchill 43 °F
Dew Point 40 °F
Humidity 86%
Rainfall 0.30 in
Snow Depth Not available.
6:51 AM 5:02 PM
Waning Crescent, 14% visible
METAR KMQY 240556Z AUTO 30008KT 10SM OVC018 06/02 A2985 RMK AO2 SLP120 T00560022 10078 20056 401330056 51007

Get Your Daily Forecast Email!

Thanks for signing up!

Be on the lookout for a verification email in your inbox.

You'll start receiving the daily forecast at 8 AM.

×

10-Day Weather Forecast

Almanac

Astronomy

Jan. 23, 2017 Rise Set
Actual Time
Civil Twilight
Nautical Twilight
Astronomical Twilight
Moon
Length of Visible Light
Length of Day
Tomorrow will be .
, % of the Moon is Illuminated

Today's Extremes

State Highs State Lows

Community

WunderPhotos

Upload Photos

1,962,540 photos uploaded!

WunderBlog® & News

Nearby

Air Quality

  Air Quality AQ Index Pollutant
Not available.

Snow Depth

Station Depth Elevation

Earthquake Activity

City Distance Mag. Time & Date
Minimum magnitude displayed is 2.5.

Coastal Water Temperatures

Place Temperature

Stations

Nearby Weather Stations

Station Location Temp. Windchill Dew Point Humidity Wind Precip. Elev Updated Type
                   

Watches & Warnings

There are currently no watches in effect.